createdAt,value
2019-03-18T00:01:25.943Z,5.00
2019-03-18T00:03:52.388Z,5.06
2019-03-18T00:06:19.231Z,5.28
2019-03-18T00:08:45.666Z,5.37
2019-03-18T00:11:12.201Z,5.20
2019-03-18T00:13:39.046Z,4.94
2019-03-18T00:16:05.684Z,5.06
2019-03-18T00:18:32.118Z,4.95
2019-03-18T00:20:58.552Z,4.67
2019-03-18T00:23:25.087Z,4.84
2019-03-18T00:25:51.731Z,4.69
2019-03-18T00:28:18.157Z,4.40
2019-03-18T00:30:44.694Z,5.23
2019-03-18T00:33:11.128Z,5.34
2019-03-18T00:35:39.198Z,5.17
2019-03-18T00:38:05.634Z,5.23
2019-03-18T00:40:32.069Z,5.11
2019-03-18T00:42:58.603Z,5.01
2019-03-18T00:45:25.138Z,5.02
2019-03-18T00:47:51.570Z,4.60
2019-03-18T00:50:18.208Z,4.88
2019-03-18T00:52:44.748Z,4.78
2019-03-18T00:55:11.690Z,4.76
2019-03-18T00:57:38.332Z,4.82
2019-03-18T01:00:13.586Z,5.05
2019-03-18T01:02:40.117Z,4.94
2019-03-18T01:05:07.741Z,4.86
2019-03-18T01:07:35.490Z,5.12
2019-03-18T01:10:03.967Z,4.93
2019-03-18T01:12:31.429Z,4.82
2019-03-18T01:14:59.318Z,5.03
2019-03-18T01:17:25.877Z,4.99
2019-03-18T01:19:52.307Z,5.10
2019-03-18T01:22:18.740Z,5.02
2019-03-18T01:24:45.297Z,5.11
2019-03-18T01:27:11.710Z,4.97
2019-03-18T01:29:38.143Z,5.11
2019-03-18T01:32:04.681Z,5.47
2019-03-18T01:34:31.113Z,5.08
2019-03-18T01:36:57.548Z,5.00
2019-03-18T01:39:23.984Z,4.87
2019-03-18T01:41:50.720Z,4.74
2019-03-18T01:44:17.262Z,4.94
2019-03-18T01:46:43.793Z,4.97
2019-03-18T01:49:10.226Z,4.93
2019-03-18T01:51:36.763Z,4.78
2019-03-18T01:54:03.200Z,4.87
2019-03-18T01:56:29.734Z,4.74
2019-03-18T01:58:56.371Z,4.65
2019-03-18T02:01:23.225Z,4.55
2019-03-18T02:03:50.772Z,4.58
2019-03-18T02:06:17.310Z,4.46
2019-03-18T02:08:43.748Z,4.40
2019-03-18T02:11:10.223Z,4.42
2019-03-18T02:13:36.715Z,4.40
2019-03-18T02:16:03.352Z,4.35
2019-03-18T02:18:29.785Z,4.50
2019-03-18T02:20:56.218Z,4.52
2019-03-18T02:23:22.654Z,4.37
2019-03-18T02:25:49.189Z,4.39
2019-03-18T02:28:15.623Z,4.47
2019-03-18T02:30:42.058Z,4.52
2019-03-18T02:33:08.593Z,4.36
2019-03-18T02:35:35.128Z,4.38
2019-03-18T02:38:01.569Z,4.41
2019-03-18T02:40:28.201Z,4.45
2019-03-18T02:42:56.582Z,3.90
2019-03-18T02:45:24.835Z,4.10
2019-03-18T02:47:51.495Z,4.22
2019-03-18T02:50:17.929Z,4.41
2019-03-18T02:52:44.470Z,4.66
2019-03-18T02:55:11.000Z,4.42
2019-03-18T02:57:37.536Z,4.38
2019-03-18T03:00:14.341Z,4.47
2019-03-18T03:02:40.950Z,4.41
2019-03-18T03:05:09.639Z,4.31
2019-03-18T03:07:36.176Z,4.42
2019-03-18T03:10:03.961Z,4.54
2019-03-18T03:12:30.375Z,4.07
2019-03-18T03:14:57.109Z,4.44
2019-03-18T03:17:23.685Z,3.96
2019-03-18T03:19:50.303Z,4.07
2019-03-18T03:22:16.819Z,4.11
2019-03-18T03:24:43.355Z,4.17
2019-03-18T03:27:09.792Z,4.18
2019-03-18T03:29:36.325Z,4.45
2019-03-18T03:32:02.819Z,4.54
2019-03-18T03:34:29.399Z,4.39
2019-03-18T03:36:55.932Z,4.46
2019-03-18T03:39:22.468Z,4.50
2019-03-18T03:41:49.006Z,4.54
2019-03-18T03:44:15.438Z,4.76
2019-03-18T03:46:43.982Z,4.72
2019-03-18T03:49:10.352Z,4.69
2019-03-18T03:51:36.789Z,4.82
2019-03-18T03:54:03.424Z,4.46
2019-03-18T03:56:30.267Z,4.89
2019-03-18T03:58:56.849Z,4.86
2019-03-18T04:01:23.748Z,5.01
2019-03-18T04:03:50.183Z,4.81
2019-03-18T04:06:16.826Z,4.66
2019-03-18T04:08:43.561Z,4.98
2019-03-18T04:11:10.096Z,4.65
2019-03-18T04:13:36.530Z,4.53
2019-03-18T04:16:03.098Z,4.70
2019-03-18T04:18:29.620Z,4.52
2019-03-18T04:20:56.036Z,4.39
2019-03-18T04:23:22.582Z,4.55
2019-03-18T04:25:49.107Z,3.93
2019-03-18T04:28:15.548Z,3.38
2019-03-18T04:30:41.973Z,3.98
2019-03-18T04:33:08.411Z,4.01
2019-03-18T04:35:34.944Z,4.22
2019-03-18T04:38:01.482Z,4.29
2019-03-18T04:40:27.913Z,4.15
2019-03-18T04:42:54.348Z,4.35
2019-03-18T04:45:20.884Z,4.71
2019-03-18T04:47:47.316Z,4.69
2019-03-18T04:50:13.958Z,4.78
2019-03-18T04:52:40.387Z,4.46
2019-03-18T04:55:07.246Z,4.44
2019-03-18T04:57:33.765Z,4.16
2019-03-18T05:00:00.428Z,4.05
2019-03-18T05:02:28.810Z,4.14
2019-03-18T05:04:55.423Z,4.10
2019-03-18T05:07:21.857Z,4.16
2019-03-18T05:09:48.391Z,4.13
2019-03-18T05:12:14.824Z,4.08
2019-03-18T05:14:41.363Z,4.06
2019-03-18T05:17:07.794Z,4.16
2019-03-18T05:19:34.537Z,3.94
2019-03-18T05:22:00.972Z,3.90
2019-03-18T05:24:27.712Z,3.82
2019-03-18T05:26:54.155Z,4.03
2019-03-18T05:29:20.678Z,4.01
2019-03-18T05:31:47.128Z,4.17
2019-03-18T05:34:13.546Z,4.07
2019-03-18T05:36:40.112Z,4.16
2019-03-18T05:39:06.626Z,3.79
2019-03-18T05:41:33.156Z,3.75
2019-03-18T05:43:59.588Z,3.60
2019-03-18T05:46:26.126Z,4.21
2019-03-18T05:48:52.560Z,4.17
2019-03-18T05:51:19.096Z,4.31
2019-03-18T05:53:45.528Z,4.15
2019-03-18T05:56:12.061Z,4.21
2019-03-18T05:58:38.495Z,4.37
2019-03-18T06:01:05.134Z,4.61
2019-03-18T06:03:31.739Z,4.16
2019-03-18T06:05:58.409Z,4.19
2019-03-18T06:08:26.380Z,4.41
2019-03-18T06:10:52.812Z,4.44
2019-03-18T06:13:19.350Z,4.47
2019-03-18T06:15:45.884Z,4.43
2019-03-18T06:18:12.319Z,4.14
2019-03-18T06:20:38.964Z,4.16
2019-03-18T06:23:05.493Z,4.15
2019-03-18T06:25:32.031Z,4.52
2019-03-18T06:27:58.563Z,3.85
2019-03-18T06:30:24.997Z,4.33
2019-03-18T06:32:51.536Z,4.64
2019-03-18T06:35:20.343Z,4.53
2019-03-18T06:37:46.448Z,4.42
2019-03-18T06:40:13.702Z,4.35
2019-03-18T06:42:40.135Z,4.53
2019-03-18T06:45:09.231Z,5.00
2019-03-18T06:47:35.768Z,4.79
2019-03-18T06:50:03.326Z,5.09
2019-03-18T06:52:29.765Z,5.10
2019-03-18T06:54:56.297Z,5.24
2019-03-18T06:57:22.730Z,5.30
2019-03-18T06:59:49.367Z,5.17
2019-03-18T07:02:15.904Z,5.12
2019-03-18T07:04:42.441Z,4.87
2019-03-18T07:07:08.875Z,5.07
2019-03-18T07:09:35.309Z,4.99
2019-03-18T07:12:01.845Z,5.06
2019-03-18T07:14:28.350Z,4.88
2019-03-18T07:16:56.658Z,4.93
2019-03-18T07:19:23.096Z,4.88
2019-03-18T07:21:49.627Z,4.92
2019-03-18T07:24:16.059Z,5.00
2019-03-18T07:26:42.595Z,5.08
2019-03-18T07:29:09.030Z,5.26
2019-03-18T07:31:35.461Z,5.14
2019-03-18T07:34:01.895Z,4.46
2019-03-18T07:36:28.435Z,4.69
2019-03-18T07:38:54.868Z,5.06
2019-03-18T07:41:21.300Z,5.17
2019-03-18T07:43:47.733Z,5.16
2019-03-18T07:46:14.293Z,5.18
2019-03-18T07:48:40.804Z,5.05
2019-03-18T07:51:07.227Z,5.08
2019-03-18T07:53:33.673Z,5.20
2019-03-18T07:56:00.207Z,5.32
2019-03-18T07:58:26.648Z,5.29
2019-03-18T08:00:53.461Z,5.47
2019-03-18T08:03:20.122Z,5.26
2019-03-18T08:05:46.657Z,5.33
2019-03-18T08:08:13.095Z,5.14
2019-03-18T08:10:41.378Z,5.47
2019-03-18T08:13:07.803Z,5.39
2019-03-18T08:15:34.254Z,5.49
2019-03-18T08:18:01.080Z,5.32
2019-03-18T08:20:27.510Z,5.18
2019-03-18T08:22:54.051Z,5.33
2019-03-18T08:25:20.686Z,5.29
2019-03-18T08:27:47.123Z,5.55
2019-03-18T08:30:18.166Z,5.72
2019-03-18T08:32:44.593Z,5.73
2019-03-18T08:35:11.338Z,5.81
2019-03-18T08:37:37.871Z,5.81
2019-03-18T08:40:10.844Z,6.05
2019-03-18T08:42:37.293Z,5.98
2019-03-18T08:45:06.800Z,6.04
2019-03-18T08:47:33.332Z,6.14
2019-03-18T08:49:59.870Z,6.16
2019-03-18T08:52:28.148Z,6.03
2019-03-18T08:54:54.681Z,6.17
2019-03-18T08:57:21.119Z,6.27
2019-03-18T08:59:47.855Z,6.38
2019-03-18T09:02:14.391Z,6.53
2019-03-18T09:04:40.928Z,6.82
2019-03-18T09:07:07.463Z,6.78
2019-03-18T09:09:33.999Z,6.58
2019-03-18T09:12:00.537Z,6.48
2019-03-18T09:14:26.970Z,6.65
2019-03-18T09:16:53.405Z,6.85
2019-03-18T09:19:20.452Z,6.54
2019-03-18T09:21:46.988Z,6.67
2019-03-18T09:24:13.524Z,6.72
2019-03-18T09:26:40.058Z,6.85
2019-03-18T09:29:06.554Z,6.71
2019-03-18T09:31:33.033Z,6.75
2019-03-18T09:33:59.465Z,6.97
2019-03-18T09:36:26.099Z,6.87
2019-03-18T09:38:52.537Z,6.63
2019-03-18T09:41:19.069Z,6.78
2019-03-18T09:43:45.502Z,6.86
2019-03-18T09:46:12.040Z,7.12
2019-03-18T09:48:38.471Z,7.08
2019-03-18T09:51:05.281Z,7.16
2019-03-18T09:53:31.752Z,7.24
2019-03-18T09:55:58.203Z,7.21
2019-03-18T09:58:24.820Z,6.64
2019-03-18T10:00:51.457Z,6.55
2019-03-18T10:03:17.996Z,6.66
2019-03-18T10:05:44.528Z,6.82
2019-03-18T10:08:10.972Z,6.62
2019-03-18T10:10:37.398Z,6.35
2019-03-18T10:13:03.830Z,6.44
2019-03-18T10:15:30.368Z,6.45
2019-03-18T10:17:56.803Z,6.78
2019-03-18T10:20:23.242Z,6.70
2019-03-18T10:22:49.772Z,6.63
2019-03-18T10:25:16.422Z,6.82
2019-03-18T10:27:42.843Z,6.54
2019-03-18T10:30:11.361Z,6.58
2019-03-18T10:32:37.866Z,6.55
2019-03-18T10:35:05.214Z,6.52
2019-03-18T10:37:31.647Z,6.50
2019-03-18T10:39:58.184Z,6.86
2019-03-18T10:42:24.618Z,7.20
2019-03-18T10:44:51.153Z,7.49
2019-03-18T10:47:17.586Z,7.81
2019-03-18T10:49:46.399Z,7.93
2019-03-18T10:52:12.424Z,7.66
2019-03-18T10:54:39.067Z,7.71
2019-03-18T10:57:05.589Z,7.42
2019-03-18T10:59:32.110Z,7.65
2019-03-18T11:01:58.761Z,7.43
2019-03-18T11:04:25.285Z,7.85
2019-03-18T11:06:51.719Z,7.98
2019-03-18T11:09:18.151Z,7.78
2019-03-18T11:11:44.585Z,8.00
2019-03-18T11:14:11.016Z,8.21
2019-03-18T11:16:37.558Z,8.06
2019-03-18T11:19:04.297Z,7.94
2019-03-18T11:21:30.728Z,8.01
2019-03-18T11:23:57.164Z,8.08
2019-03-18T11:26:23.803Z,8.06
2019-03-18T11:28:50.235Z,8.06
2019-03-18T11:31:16.665Z,8.14
2019-03-18T11:33:43.098Z,7.74
2019-03-18T11:36:09.738Z,7.97
2019-03-18T11:38:36.172Z,7.98
2019-03-18T11:41:02.606Z,8.07
2019-03-18T11:43:29.038Z,8.33
2019-03-18T11:45:55.782Z,8.40
2019-03-18T11:48:22.215Z,8.06
2019-03-18T11:50:50.149Z,8.35
2019-03-18T11:53:16.724Z,8.00
2019-03-18T11:55:43.254Z,8.19
2019-03-18T11:58:09.893Z,8.22
2019-03-18T12:00:36.531Z,7.91
2019-03-18T12:03:03.441Z,8.21
2019-03-18T12:05:30.016Z,7.95
2019-03-18T12:07:56.445Z,8.29
2019-03-18T12:10:25.715Z,8.41
2019-03-18T12:12:51.258Z,8.27
2019-03-18T12:15:22.815Z,8.32
2019-03-18T12:17:49.245Z,8.55
2019-03-18T12:20:24.317Z,8.07
2019-03-18T12:22:44.061Z,7.73
2019-03-18T12:25:11.517Z,7.81
2019-03-18T12:27:38.257Z,7.79
2019-03-18T12:30:17.426Z,8.10
2019-03-18T12:32:44.026Z,8.38
2019-03-18T12:35:10.664Z,8.60
2019-03-18T12:37:37.100Z,8.70
2019-03-18T12:40:06.193Z,8.69
2019-03-18T12:42:32.626Z,8.76
2019-03-18T12:44:59.163Z,8.82
2019-03-18T12:47:26.006Z,8.73
2019-03-18T12:49:54.231Z,9.00
2019-03-18T12:52:20.718Z,9.15
2019-03-18T12:54:47.354Z,8.87
2019-03-18T12:57:13.787Z,8.97
2019-03-18T12:59:40.329Z,9.05
2019-03-18T13:02:07.073Z,8.75
2019-03-18T13:04:34.238Z,8.95
2019-03-18T13:07:00.856Z,8.52
2019-03-18T13:09:27.391Z,8.63
2019-03-18T13:11:54.027Z,8.55
2019-03-18T13:14:20.563Z,8.69
2019-03-18T13:16:47.100Z,8.64
2019-03-18T13:19:13.638Z,8.20
2019-03-18T13:21:40.173Z,8.29
2019-03-18T13:24:06.713Z,8.23
2019-03-18T13:26:33.249Z,8.42
2019-03-18T13:29:01.010Z,8.49
2019-03-18T13:31:27.444Z,8.42
2019-03-18T13:33:53.985Z,8.46
2019-03-18T13:36:20.518Z,8.09
2019-03-18T13:38:47.053Z,7.74
2019-03-18T13:41:13.487Z,8.15
2019-03-18T13:43:39.922Z,8.15
2019-03-18T13:46:06.569Z,8.32
2019-03-18T13:48:33.158Z,8.36
2019-03-18T13:50:59.626Z,8.36
2019-03-18T13:53:26.162Z,8.43
2019-03-18T13:55:52.699Z,8.57
2019-03-18T13:58:19.145Z,8.65
2019-03-18T14:00:45.672Z,8.81
2019-03-18T14:03:12.189Z,8.80
2019-03-18T14:05:38.846Z,8.79
2019-03-18T14:08:06.608Z,8.80
2019-03-18T14:10:33.040Z,8.84
2019-03-18T14:12:59.577Z,8.91
2019-03-18T14:15:26.218Z,8.84
2019-03-18T14:17:52.648Z,8.71
2019-03-18T14:20:20.929Z,8.76
2019-03-18T14:22:47.460Z,8.85
2019-03-18T14:25:13.997Z,8.87
2019-03-18T14:27:40.431Z,8.86
2019-03-18T14:30:15.469Z,8.78
2019-03-18T14:32:42.410Z,8.78
2019-03-18T14:35:09.356Z,8.73
2019-03-18T14:37:35.791Z,8.74
2019-03-18T14:40:03.350Z,8.58
2019-03-18T14:42:29.885Z,8.46
2019-03-18T14:44:56.421Z,8.15
2019-03-18T14:47:22.962Z,8.38
2019-03-18T14:49:49.390Z,8.38
2019-03-18T14:52:15.927Z,8.42
2019-03-18T14:54:42.463Z,8.24
2019-03-18T14:57:10.741Z,8.07
2019-03-18T14:59:37.173Z,8.42
2019-03-18T15:02:03.699Z,8.26
2019-03-18T15:04:30.350Z,8.20
2019-03-18T15:06:56.989Z,8.43
2019-03-18T15:09:23.524Z,8.17
2019-03-18T15:11:49.955Z,8.30
2019-03-18T15:14:16.390Z,8.77
2019-03-18T15:16:42.925Z,8.42
2019-03-18T15:19:09.358Z,8.49
2019-03-18T15:21:35.792Z,8.36
2019-03-18T15:24:02.328Z,8.47
2019-03-18T15:26:28.763Z,8.40
2019-03-18T15:28:57.038Z,8.74
2019-03-18T15:31:23.576Z,8.74
2019-03-18T15:33:50.011Z,9.41
2019-03-18T15:36:16.545Z,9.87
2019-03-18T15:38:42.976Z,10.07
2019-03-18T15:41:09.513Z,9.37
2019-03-18T15:43:35.949Z,9.46
2019-03-18T15:46:02.481Z,9.76
2019-03-18T15:48:28.916Z,10.27
2019-03-18T15:50:55.349Z,10.21
2019-03-18T15:53:21.782Z,10.01
2019-03-18T15:55:48.318Z,10.40
2019-03-18T15:58:14.752Z,9.27
2019-03-18T16:00:41.185Z,8.61
2019-03-18T16:03:07.725Z,8.21
2019-03-18T16:05:34.359Z,7.90
2019-03-18T16:08:00.907Z,8.06
2019-03-18T16:10:27.330Z,8.21
2019-03-18T16:12:53.763Z,7.74
2019-03-18T16:15:20.504Z,7.75
2019-03-18T16:17:46.940Z,7.54
2019-03-18T16:20:14.806Z,7.51
2019-03-18T16:22:41.452Z,7.43
2019-03-18T16:25:08.808Z,7.21
2019-03-18T16:27:37.081Z,7.23
2019-03-18T16:30:15.132Z,7.14
2019-03-18T16:32:41.728Z,7.11
2019-03-18T16:35:10.302Z,7.18
2019-03-18T16:37:36.843Z,7.03
2019-03-18T16:40:06.682Z,6.93
2019-03-18T16:42:33.187Z,6.82
2019-03-18T16:44:59.729Z,7.03
2019-03-18T16:47:26.359Z,6.92
2019-03-18T16:49:52.904Z,6.97
2019-03-18T16:52:19.435Z,7.14
2019-03-18T16:54:45.967Z,7.55
2019-03-18T16:57:12.389Z,7.59
2019-03-18T16:59:38.838Z,7.68
2019-03-18T17:02:05.373Z,8.02
2019-03-18T17:04:32.010Z,7.63
2019-03-18T17:06:58.548Z,7.44
2019-03-18T17:09:25.072Z,7.39
2019-03-18T17:11:51.517Z,7.81
2019-03-18T17:14:19.792Z,7.78
2019-03-18T17:16:46.329Z,8.06
2019-03-18T17:19:12.863Z,8.04
2019-03-18T17:21:39.297Z,7.67
2019-03-18T17:24:05.730Z,7.28
2019-03-18T17:26:32.270Z,7.04
2019-03-18T17:28:58.801Z,6.93
2019-03-18T17:31:25.338Z,7.26
2019-03-18T17:33:51.771Z,7.38
2019-03-18T17:36:18.235Z,7.24
2019-03-18T17:38:44.740Z,7.30
2019-03-18T17:41:11.175Z,7.20
2019-03-18T17:43:37.591Z,6.92
2019-03-18T17:46:04.072Z,6.80
2019-03-18T17:48:30.494Z,6.72
2019-03-18T17:50:57.014Z,6.53
2019-03-18T17:53:23.564Z,6.53
2019-03-18T17:55:50.185Z,6.10
2019-03-18T17:58:18.460Z,6.41
2019-03-18T18:00:56.056Z,6.18
2019-03-18T18:03:22.497Z,6.27
2019-03-18T18:05:51.474Z,6.15
2019-03-18T18:08:18.419Z,5.93
2019-03-18T18:10:45.074Z,6.09
2019-03-18T18:13:11.523Z,5.75
2019-03-18T18:15:38.009Z,5.85
2019-03-18T18:18:04.675Z,5.68
2019-03-18T18:20:31.518Z,6.19
2019-03-18T18:22:58.158Z,6.04
2019-03-18T18:25:24.794Z,5.92
2019-03-18T18:27:51.231Z,5.81
2019-03-18T18:30:18.483Z,5.29
2019-03-18T18:32:45.224Z,5.79
2019-03-18T18:35:12.579Z,5.72
2019-03-18T18:37:39.043Z,5.57
2019-03-18T18:40:19.473Z,5.91
2019-03-18T18:42:46.012Z,6.13
2019-03-18T18:45:13.059Z,5.71
2019-03-18T18:47:39.700Z,5.67
2019-03-18T18:50:08.177Z,5.66
2019-03-18T18:52:34.620Z,5.50
2019-03-18T18:55:01.250Z,5.62
2019-03-18T18:57:27.684Z,5.55
2019-03-18T18:59:54.118Z,5.69
2019-03-18T19:02:20.551Z,5.79
2019-03-18T19:04:47.087Z,5.95
2019-03-18T19:07:13.725Z,6.02
2019-03-18T19:09:40.263Z,5.98
2019-03-18T19:12:06.796Z,6.11
2019-03-18T19:14:33.331Z,6.09
2019-03-18T19:16:59.766Z,6.16
2019-03-18T19:19:26.199Z,6.21
2019-03-18T19:21:52.637Z,6.15
2019-03-18T19:24:19.682Z,6.06
2019-03-18T19:26:46.536Z,6.16
2019-03-18T19:29:13.602Z,6.09
2019-03-18T19:31:40.005Z,6.08
2019-03-18T19:34:06.469Z,6.16
2019-03-18T19:36:33.079Z,6.06
2019-03-18T19:38:59.618Z,6.09
2019-03-18T19:41:26.323Z,5.97
2019-03-18T19:43:52.892Z,6.06
2019-03-18T19:46:19.431Z,6.22
2019-03-18T19:48:45.858Z,6.17
2019-03-18T19:51:12.278Z,6.19
2019-03-18T19:53:48.604Z,6.11
2019-03-18T19:56:09.052Z,6.22
2019-03-18T19:58:35.484Z,6.08
2019-03-18T20:01:01.927Z,5.99
2019-03-18T20:03:28.350Z,6.00
2019-03-18T20:05:54.887Z,5.96
2019-03-18T20:08:21.527Z,6.00
2019-03-18T20:10:47.959Z,5.76
2019-03-18T20:13:14.499Z,5.94
2019-03-18T20:15:41.032Z,6.00
2019-03-18T20:18:07.467Z,5.86
2019-03-18T20:20:33.911Z,6.02
2019-03-18T20:23:00.332Z,5.78
2019-03-18T20:25:26.872Z,5.81
2019-03-18T20:27:53.404Z,5.81
2019-03-18T20:30:22.698Z,5.09
2019-03-18T20:32:49.145Z,5.63
2019-03-18T20:35:21.103Z,5.45
2019-03-18T20:37:47.638Z,5.57
2019-03-18T20:40:15.197Z,5.32
2019-03-18T20:42:42.041Z,5.46
2019-03-18T20:45:13.613Z,5.24
2019-03-18T20:47:40.130Z,5.19
2019-03-18T20:50:12.502Z,5.05
2019-03-18T20:52:38.938Z,5.20
2019-03-18T20:55:06.599Z,5.21
2019-03-18T20:57:34.878Z,5.13
2019-03-18T21:00:05.444Z,5.10
2019-03-18T21:02:32.149Z,5.07
2019-03-18T21:04:58.682Z,5.24
2019-03-18T21:07:27.265Z,5.31
2019-03-18T21:09:53.801Z,5.27
2019-03-18T21:12:20.235Z,5.50
2019-03-18T21:14:46.771Z,5.49
2019-03-18T21:17:13.987Z,5.45
2019-03-18T21:19:40.462Z,5.25
2019-03-18T21:22:07.098Z,5.14
2019-03-18T21:24:35.375Z,5.28
2019-03-18T21:27:03.038Z,5.02
2019-03-18T21:29:29.472Z,5.21
2019-03-18T21:31:55.904Z,5.30
2019-03-18T21:34:22.338Z,5.22
2019-03-18T21:36:49.080Z,5.02
2019-03-18T21:39:18.141Z,5.07
2019-03-18T21:41:44.809Z,4.83
2019-03-18T21:44:11.227Z,5.09
2019-03-18T21:46:37.705Z,5.01
2019-03-18T21:49:06.403Z,5.19
2019-03-18T21:51:32.900Z,4.83
2019-03-18T21:53:59.440Z,5.07
2019-03-18T21:56:25.971Z,4.73
2019-03-18T21:58:53.635Z,4.92
2019-03-18T22:01:20.176Z,4.80
2019-03-18T22:03:47.737Z,4.89
2019-03-18T22:06:15.517Z,4.96
2019-03-18T22:08:42.142Z,4.98
2019-03-18T22:11:08.674Z,4.89
2019-03-18T22:13:35.206Z,4.75
2019-03-18T22:16:01.750Z,4.83
2019-03-18T22:18:28.275Z,4.84
2019-03-18T22:20:56.658Z,4.77
2019-03-18T22:23:23.201Z,4.78
2019-03-18T22:25:49.732Z,5.00
2019-03-18T22:28:16.161Z,4.98
2019-03-18T22:30:44.811Z,5.13
2019-03-18T22:33:11.382Z,4.89
2019-03-18T22:35:38.021Z,4.74
2019-03-18T22:38:04.869Z,4.74
2019-03-18T22:40:31.401Z,4.71
2019-03-18T22:42:57.952Z,4.75
2019-03-18T22:45:24.475Z,4.85
2019-03-18T22:47:51.015Z,4.75
2019-03-18T22:50:18.774Z,4.51
2019-03-18T22:52:45.209Z,4.79
2019-03-18T22:55:14.609Z,4.66
2019-03-18T22:57:41.046Z,4.80
2019-03-18T23:00:21.718Z,4.75
2019-03-18T23:02:48.453Z,4.71
2019-03-18T23:05:15.192Z,4.90
2019-03-18T23:07:41.829Z,4.63
2019-03-18T23:10:08.573Z,4.81
2019-03-18T23:12:36.847Z,5.00
2019-03-18T23:15:05.533Z,4.64
2019-03-18T23:17:31.967Z,4.76
2019-03-18T23:19:58.711Z,4.39
2019-03-18T23:22:25.243Z,4.73
2019-03-18T23:24:51.805Z,4.76
2019-03-18T23:27:18.317Z,4.66
2019-03-18T23:29:44.750Z,4.44
2019-03-18T23:32:11.285Z,4.65
2019-03-18T23:34:37.821Z,4.70
2019-03-18T23:37:04.254Z,4.79
2019-03-18T23:39:30.791Z,4.72
2019-03-18T23:41:57.224Z,4.52
2019-03-18T23:44:23.657Z,4.60
2019-03-18T23:46:50.094Z,4.80
2019-03-18T23:49:16.527Z,4.67
2019-03-18T23:51:43.368Z,5.10
2019-03-18T23:54:09.800Z,4.62
2019-03-18T23:56:36.338Z,4.78
2019-03-18T23:59:02.772Z,4.50
